sensor_id;sensor_type;location;lat;lon;timestamp;P1;durP1;ratioP1;P2;durP2;ratioP2
25249;SDS011;13201;51.148;13.738;2023-11-19T00:00:28;11.18;;;6.47;;
25249;SDS011;13201;51.148;13.738;2023-11-19T00:02:54;11.63;;;7.05;;
25249;SDS011;13201;51.148;13.738;2023-11-19T00:05:20;9.77;;;6.30;;
25249;SDS011;13201;51.148;13.738;2023-11-19T00:07:46;9.82;;;6.50;;
25249;SDS011;13201;51.148;13.738;2023-11-19T00:10:12;11.23;;;6.90;;
25249;SDS011;13201;51.148;13.738;2023-11-19T00:12:43;8.10;;;5.75;;
25249;SDS011;13201;51.148;13.738;2023-11-19T00:15:09;9.32;;;5.90;;
25249;SDS011;13201;51.148;13.738;2023-11-19T00:17:39;11.18;;;6.95;;
25249;SDS011;13201;51.148;13.738;2023-11-19T00:20:06;12.15;;;6.50;;
25249;SDS011;13201;51.148;13.738;2023-11-19T00:22:32;10.80;;;6.30;;
25249;SDS011;13201;51.148;13.738;2023-11-19T00:24:58;9.88;;;6.15;;
25249;SDS011;13201;51.148;13.738;2023-11-19T00:27:24;10.30;;;6.13;;
25249;SDS011;13201;51.148;13.738;2023-11-19T00:29:51;11.57;;;6.57;;
25249;SDS011;13201;51.148;13.738;2023-11-19T00:32:16;12.40;;;6.78;;
25249;SDS011;13201;51.148;13.738;2023-11-19T00:34:45;13.00;;;6.40;;
25249;SDS011;13201;51.148;13.738;2023-11-19T00:37:12;12.38;;;6.63;;
25249;SDS011;13201;51.148;13.738;2023-11-19T00:39:40;11.40;;;6.80;;
25249;SDS011;13201;51.148;13.738;2023-11-19T00:42:06;9.40;;;6.38;;
25249;SDS011;13201;51.148;13.738;2023-11-19T00:44:31;13.57;;;7.35;;
25249;SDS011;13201;51.148;13.738;2023-11-19T00:46:57;11.65;;;6.97;;
25249;SDS011;13201;51.148;13.738;2023-11-19T00:49:24;11.10;;;6.90;;
25249;SDS011;13201;51.148;13.738;2023-11-19T00:51:50;11.68;;;7.05;;
25249;SDS011;13201;51.148;13.738;2023-11-19T00:54:16;10.32;;;6.50;;
25249;SDS011;13201;51.148;13.738;2023-11-19T00:56:41;9.02;;;6.13;;
25249;SDS011;13201;51.148;13.738;2023-11-19T00:59:07;10.80;;;6.70;;
25249;SDS011;13201;51.148;13.738;2023-11-19T01:01:33;9.13;;;6.22;;
25249;SDS011;13201;51.148;13.738;2023-11-19T01:28:13;8.52;;;5.88;;
25249;SDS011;13201;51.148;13.738;2023-11-19T01:30:39;10.05;;;6.05;;
25249;SDS011;13201;51.148;13.738;2023-11-19T01:33:05;10.00;;;6.43;;
25249;SDS011;13201;51.148;13.738;2023-11-19T01:35:32;9.65;;;5.78;;
25249;SDS011;13201;51.148;13.738;2023-11-19T01:37:58;9.85;;;5.32;;
25249;SDS011;13201;51.148;13.738;2023-11-19T01:40:23;8.07;;;5.30;;
25249;SDS011;13201;51.148;13.738;2023-11-19T01:42:49;9.00;;;5.13;;
25249;SDS011;13201;51.148;13.738;2023-11-19T01:45:21;7.53;;;4.95;;
25249;SDS011;13201;51.148;13.738;2023-11-19T01:47:52;9.60;;;5.40;;
25249;SDS011;13201;51.148;13.738;2023-11-19T01:50:18;7.00;;;4.53;;
25249;SDS011;13201;51.148;13.738;2023-11-19T01:52:45;8.68;;;5.30;;
25249;SDS011;13201;51.148;13.738;2023-11-19T01:55:11;8.07;;;5.03;;
25249;SDS011;13201;51.148;13.738;2023-11-19T01:57:37;7.85;;;4.53;;
25249;SDS011;13201;51.148;13.738;2023-11-19T02:00:03;6.35;;;4.47;;
25249;SDS011;13201;51.148;13.738;2023-11-19T02:02:30;7.70;;;4.43;;
25249;SDS011;13201;51.148;13.738;2023-11-19T02:04:56;8.50;;;4.57;;
25249;SDS011;13201;51.148;13.738;2023-11-19T02:07:22;6.97;;;4.35;;
25249;SDS011;13201;51.148;13.738;2023-11-19T02:09:49;7.38;;;4.03;;
25249;SDS011;13201;51.148;13.738;2023-11-19T02:12:15;6.38;;;4.18;;
25249;SDS011;13201;51.148;13.738;2023-11-19T02:14:40;6.68;;;4.22;;
25249;SDS011;13201;51.148;13.738;2023-11-19T02:17:06;4.82;;;3.35;;
25249;SDS011;13201;51.148;13.738;2023-11-19T02:19:32;5.45;;;3.53;;
25249;SDS011;13201;51.148;13.738;2023-11-19T02:21:58;4.60;;;3.58;;
25249;SDS011;13201;51.148;13.738;2023-11-19T02:24:25;5.30;;;3.70;;
25249;SDS011;13201;51.148;13.738;2023-11-19T02:27:05;4.60;;;3.22;;
25249;SDS011;13201;51.148;13.738;2023-11-19T02:29:35;6.30;;;3.30;;
25249;SDS011;13201;51.148;13.738;2023-11-19T02:32:01;4.40;;;2.92;;
25249;SDS011;13201;51.148;13.738;2023-11-19T02:34:28;5.72;;;2.72;;
25249;SDS011;13201;51.148;13.738;2023-11-19T02:36:54;3.13;;;2.30;;
25249;SDS011;13201;51.148;13.738;2023-11-19T02:39:19;2.88;;;2.00;;
25249;SDS011;13201;51.148;13.738;2023-11-19T02:44:14;2.78;;;1.90;;
25249;SDS011;13201;51.148;13.738;2023-11-19T02:46:40;3.00;;;2.10;;
25249;SDS011;13201;51.148;13.738;2023-11-19T02:51:33;5.17;;;1.70;;
25249;SDS011;13201;51.148;13.738;2023-11-19T02:53:59;2.17;;;1.92;;
25249;SDS011;13201;51.148;13.738;2023-11-19T02:56:25;3.08;;;1.83;;
25249;SDS011;13201;51.148;13.738;2023-11-19T02:58:51;2.83;;;1.90;;
25249;SDS011;13201;51.148;13.738;2023-11-19T03:01:21;2.78;;;1.88;;
25249;SDS011;13201;51.148;13.738;2023-11-19T03:03:54;3.37;;;1.77;;
25249;SDS011;13201;51.148;13.738;2023-11-19T03:06:22;4.20;;;1.90;;
25249;SDS011;13201;51.148;13.738;2023-11-19T03:08:47;3.55;;;2.08;;
25249;SDS011;13201;51.148;13.738;2023-11-19T03:11:13;2.88;;;1.92;;
25249;SDS011;13201;51.148;13.738;2023-11-19T03:13:39;3.13;;;2.20;;
25249;SDS011;13201;51.148;13.738;2023-11-19T03:16:05;4.00;;;2.05;;
25249;SDS011;13201;51.148;13.738;2023-11-19T03:18:31;3.42;;;2.08;;
25249;SDS011;13201;51.148;13.738;2023-11-19T03:20:58;5.20;;;2.10;;
25249;SDS011;13201;51.148;13.738;2023-11-19T03:23:23;2.67;;;1.90;;
25249;SDS011;13201;51.148;13.738;2023-11-19T03:25:53;3.92;;;2.10;;
25249;SDS011;13201;51.148;13.738;2023-11-19T03:28:19;2.50;;;1.93;;
25249;SDS011;13201;51.148;13.738;2023-11-19T03:30:44;3.22;;;2.03;;
25249;SDS011;13201;51.148;13.738;2023-11-19T03:33:10;2.65;;;2.08;;
25249;SDS011;13201;51.148;13.738;2023-11-19T03:35:36;2.53;;;1.80;;
25249;SDS011;13201;51.148;13.738;2023-11-19T03:38:02;2.97;;;1.70;;
25249;SDS011;13201;51.148;13.738;2023-11-19T03:40:28;2.25;;;1.60;;
25249;SDS011;13201;51.148;13.738;2023-11-19T03:42:57;2.60;;;1.53;;
25249;SDS011;13201;51.148;13.738;2023-11-19T03:45:23;3.35;;;1.60;;
25249;SDS011;13201;51.148;13.738;2023-11-19T03:47:50;2.45;;;1.83;;
25249;SDS011;13201;51.148;13.738;2023-11-19T03:50:15;2.63;;;1.85;;
25249;SDS011;13201;51.148;13.738;2023-11-19T03:52:41;2.78;;;1.70;;
25249;SDS011;13201;51.148;13.738;2023-11-19T03:55:07;2.53;;;1.90;;
25249;SDS011;13201;51.148;13.738;2023-11-19T03:57:34;2.78;;;1.90;;
25249;SDS011;13201;51.148;13.738;2023-11-19T04:00:00;3.72;;;1.90;;
25249;SDS011;13201;51.148;13.738;2023-11-19T04:02:31;2.53;;;1.70;;
25249;SDS011;13201;51.148;13.738;2023-11-19T04:04:56;2.45;;;2.00;;
25249;SDS011;13201;51.148;13.738;2023-11-19T04:07:22;3.58;;;2.00;;
25249;SDS011;13201;51.148;13.738;2023-11-19T04:09:47;3.08;;;1.90;;
25249;SDS011;13201;51.148;13.738;2023-11-19T04:12:13;3.25;;;2.30;;
25249;SDS011;13201;51.148;13.738;2023-11-19T04:14:39;3.58;;;2.35;;
25249;SDS011;13201;51.148;13.738;2023-11-19T04:17:05;5.65;;;2.25;;
25249;SDS011;13201;51.148;13.738;2023-11-19T04:19:31;5.47;;;2.20;;
25249;SDS011;13201;51.148;13.738;2023-11-19T04:21:57;3.45;;;2.20;;
25249;SDS011;13201;51.148;13.738;2023-11-19T04:24:23;4.22;;;2.40;;
25249;SDS011;13201;51.148;13.738;2023-11-19T04:26:49;3.45;;;2.60;;
25249;SDS011;13201;51.148;13.738;2023-11-19T04:29:15;4.40;;;2.67;;
25249;SDS011;13201;51.148;13.738;2023-11-19T04:34:08;3.30;;;2.35;;
25249;SDS011;13201;51.148;13.738;2023-11-19T04:36:33;5.53;;;2.60;;
25249;SDS011;13201;51.148;13.738;2023-11-19T04:38:59;4.53;;;3.00;;
25249;SDS011;13201;51.148;13.738;2023-11-19T04:41:26;3.17;;;2.70;;
25249;SDS011;13201;51.148;13.738;2023-11-19T04:43:55;4.88;;;2.97;;
25249;SDS011;13201;51.148;13.738;2023-11-19T04:46:21;4.30;;;3.00;;
25249;SDS011;13201;51.148;13.738;2023-11-19T04:48:46;5.13;;;2.83;;
25249;SDS011;13201;51.148;13.738;2023-11-19T04:51:12;4.45;;;3.00;;
25249;SDS011;13201;51.148;13.738;2023-11-19T04:53:38;5.07;;;3.03;;
25249;SDS011;13201;51.148;13.738;2023-11-19T04:56:10;4.15;;;2.90;;
25249;SDS011;13201;51.148;13.738;2023-11-19T04:58:36;3.97;;;2.80;;
25249;SDS011;13201;51.148;13.738;2023-11-19T05:01:02;5.22;;;3.00;;
25249;SDS011;13201;51.148;13.738;2023-11-19T05:03:30;4.82;;;3.10;;
25249;SDS011;13201;51.148;13.738;2023-11-19T05:05:56;3.35;;;2.75;;
25249;SDS011;13201;51.148;13.738;2023-11-19T05:08:22;4.57;;;2.55;;
25249;SDS011;13201;51.148;13.738;2023-11-19T05:10:48;4.70;;;2.67;;
25249;SDS011;13201;51.148;13.738;2023-11-19T05:13:14;3.13;;;2.45;;
25249;SDS011;13201;51.148;13.738;2023-11-19T05:15:40;3.87;;;2.90;;
25249;SDS011;13201;51.148;13.738;2023-11-19T05:18:06;4.38;;;2.80;;
25249;SDS011;13201;51.148;13.738;2023-11-19T05:20:31;5.82;;;3.00;;
25249;SDS011;13201;51.148;13.738;2023-11-19T05:22:57;3.83;;;2.40;;
25249;SDS011;13201;51.148;13.738;2023-11-19T05:25:25;3.35;;;2.50;;
25249;SDS011;13201;51.148;13.738;2023-11-19T05:27:52;4.53;;;2.70;;
25249;SDS011;13201;51.148;13.738;2023-11-19T05:30:17;4.30;;;3.00;;
25249;SDS011;13201;51.148;13.738;2023-11-19T05:32:43;4.63;;;3.30;;
25249;SDS011;13201;51.148;13.738;2023-11-19T05:35:09;4.40;;;2.88;;
25249;SDS011;13201;51.148;13.738;2023-11-19T05:37:36;5.00;;;2.88;;
25249;SDS011;13201;51.148;13.738;2023-11-19T05:40:01;3.22;;;2.53;;
25249;SDS011;13201;51.148;13.738;2023-11-19T05:42:37;4.13;;;2.83;;
25249;SDS011;13201;51.148;13.738;2023-11-19T05:45:02;3.80;;;2.38;;
25249;SDS011;13201;51.148;13.738;2023-11-19T05:47:28;4.32;;;2.60;;
25249;SDS011;13201;51.148;13.738;2023-11-19T05:49:54;3.40;;;2.63;;
25249;SDS011;13201;51.148;13.738;2023-11-19T05:52:19;4.35;;;2.80;;
25249;SDS011;13201;51.148;13.738;2023-11-19T05:54:47;3.25;;;2.35;;
25249;SDS011;13201;51.148;13.738;2023-11-19T05:57:16;4.55;;;2.55;;
25249;SDS011;13201;51.148;13.738;2023-11-19T05:59:47;3.47;;;2.67;;
25249;SDS011;13201;51.148;13.738;2023-11-19T06:02:13;3.17;;;2.42;;
25249;SDS011;13201;51.148;13.738;2023-11-19T06:04:39;3.42;;;2.67;;
25249;SDS011;13201;51.148;13.738;2023-11-19T06:07:05;3.92;;;2.67;;
25249;SDS011;13201;51.148;13.738;2023-11-19T06:09:30;4.10;;;2.90;;
25249;SDS011;13201;51.148;13.738;2023-11-19T06:11:58;4.97;;;3.15;;
25249;SDS011;13201;51.148;13.738;2023-11-19T06:14:26;4.15;;;2.80;;
25249;SDS011;13201;51.148;13.738;2023-11-19T06:16:52;3.83;;;2.45;;
25249;SDS011;13201;51.148;13.738;2023-11-19T06:19:18;4.13;;;2.70;;
25249;SDS011;13201;51.148;13.738;2023-11-19T06:21:44;3.15;;;2.40;;
25249;SDS011;13201;51.148;13.738;2023-11-19T06:24:09;3.55;;;2.45;;
25249;SDS011;13201;51.148;13.738;2023-11-19T06:26:35;3.67;;;2.63;;
25249;SDS011;13201;51.148;13.738;2023-11-19T06:29:00;3.45;;;2.42;;
25249;SDS011;13201;51.148;13.738;2023-11-19T06:31:26;4.20;;;2.80;;
25249;SDS011;13201;51.148;13.738;2023-11-19T06:33:52;3.83;;;2.50;;
25249;SDS011;13201;51.148;13.738;2023-11-19T06:36:18;3.10;;;2.38;;
25249;SDS011;13201;51.148;13.738;2023-11-19T06:38:43;3.17;;;2.55;;
25249;SDS011;13201;51.148;13.738;2023-11-19T06:41:09;4.63;;;2.50;;
25249;SDS011;13201;51.148;13.738;2023-11-19T06:43:35;4.22;;;2.65;;
25249;SDS011;13201;51.148;13.738;2023-11-19T06:48:30;4.85;;;3.30;;
25249;SDS011;13201;51.148;13.738;2023-11-19T06:50:57;4.72;;;3.45;;
25249;SDS011;13201;51.148;13.738;2023-11-19T06:53:23;4.03;;;3.55;;
25249;SDS011;13201;51.148;13.738;2023-11-19T06:55:48;6.70;;;4.35;;
25249;SDS011;13201;51.148;13.738;2023-11-19T06:58:14;9.30;;;6.85;;
25249;SDS011;13201;51.148;13.738;2023-11-19T07:00:39;3.25;;;2.08;;
25249;SDS011;13201;51.148;13.738;2023-11-19T07:03:06;3.05;;;2.38;;
25249;SDS011;13201;51.148;13.738;2023-11-19T07:05:35;3.70;;;3.10;;
25249;SDS011;13201;51.148;13.738;2023-11-19T07:08:03;6.93;;;3.33;;
25249;SDS011;13201;51.148;13.738;2023-11-19T07:10:30;5.88;;;3.80;;
25249;SDS011;13201;51.148;13.738;2023-11-19T07:12:56;6.72;;;4.57;;
25249;SDS011;13201;51.148;13.738;2023-11-19T07:15:22;11.43;;;7.45;;
25249;SDS011;13201;51.148;13.738;2023-11-19T07:17:48;5.30;;;4.53;;
25249;SDS011;13201;51.148;13.738;2023-11-19T07:20:14;3.80;;;3.20;;
25249;SDS011;13201;51.148;13.738;2023-11-19T07:22:41;3.03;;;2.20;;
25249;SDS011;13201;51.148;13.738;2023-11-19T07:25:12;9.65;;;7.70;;
25249;SDS011;13201;51.148;13.738;2023-11-19T07:27:38;3.33;;;2.47;;
25249;SDS011;13201;51.148;13.738;2023-11-19T07:30:05;3.15;;;1.63;;
25249;SDS011;13201;51.148;13.738;2023-11-19T07:32:32;3.50;;;2.05;;
25249;SDS011;13201;51.148;13.738;2023-11-19T07:34:58;3.40;;;3.07;;
25249;SDS011;13201;51.148;13.738;2023-11-19T07:37:24;7.72;;;4.60;;
25249;SDS011;13201;51.148;13.738;2023-11-19T07:39:50;8.15;;;5.25;;
25249;SDS011;13201;51.148;13.738;2023-11-19T07:42:16;3.30;;;2.20;;
25249;SDS011;13201;51.148;13.738;2023-11-19T07:44:42;3.92;;;2.55;;
25249;SDS011;13201;51.148;13.738;2023-11-19T07:49:34;3.30;;;2.80;;
25249;SDS011;13201;51.148;13.738;2023-11-19T07:52:00;2.80;;;2.42;;
25249;SDS011;13201;51.148;13.738;2023-11-19T07:54:26;3.15;;;2.20;;
25249;SDS011;13201;51.148;13.738;2023-11-19T07:56:51;2.97;;;1.83;;
25249;SDS011;13201;51.148;13.738;2023-11-19T07:59:17;2.88;;;2.55;;
25249;SDS011;13201;51.148;13.738;2023-11-19T08:01:43;2.70;;;1.88;;
25249;SDS011;13201;51.148;13.738;2023-11-19T08:04:08;1.67;;;1.33;;
25249;SDS011;13201;51.148;13.738;2023-11-19T08:06:35;1.73;;;1.25;;
25249;SDS011;13201;51.148;13.738;2023-11-19T08:09:01;3.00;;;1.67;;
25249;SDS011;13201;51.148;13.738;2023-11-19T08:11:26;2.05;;;1.52;;
25249;SDS011;13201;51.148;13.738;2023-11-19T08:13:52;2.63;;;1.70;;
25249;SDS011;13201;51.148;13.738;2023-11-19T08:16:18;2.10;;;1.30;;
25249;SDS011;13201;51.148;13.738;2023-11-19T08:18:43;3.47;;;1.27;;
25249;SDS011;13201;51.148;13.738;2023-11-19T08:21:09;2.13;;;1.67;;
25249;SDS011;13201;51.148;13.738;2023-11-19T08:23:35;3.22;;;2.05;;
25249;SDS011;13201;51.148;13.738;2023-11-19T08:26:01;4.00;;;2.63;;
25249;SDS011;13201;51.148;13.738;2023-11-19T08:28:27;3.65;;;2.67;;
25249;SDS011;13201;51.148;13.738;2023-11-19T08:30:53;4.97;;;3.50;;
25249;SDS011;13201;51.148;13.738;2023-11-19T08:33:19;2.38;;;1.70;;
25249;SDS011;13201;51.148;13.738;2023-11-19T08:35:47;7.32;;;4.47;;
25249;SDS011;13201;51.148;13.738;2023-11-19T08:38:13;5.05;;;3.38;;
25249;SDS011;13201;51.148;13.738;2023-11-19T08:40:39;3.65;;;2.70;;
25249;SDS011;13201;51.148;13.738;2023-11-19T08:43:04;3.63;;;1.98;;
25249;SDS011;13201;51.148;13.738;2023-11-19T08:45:31;4.93;;;3.20;;
25249;SDS011;13201;51.148;13.738;2023-11-19T08:47:57;4.93;;;2.03;;
25249;SDS011;13201;51.148;13.738;2023-11-19T08:50:23;1.95;;;1.20;;
25249;SDS011;13201;51.148;13.738;2023-11-19T08:52:49;1.20;;;0.80;;
25249;SDS011;13201;51.148;13.738;2023-11-19T08:55:14;1.50;;;0.93;;
25249;SDS011;13201;51.148;13.738;2023-11-19T08:57:40;2.08;;;0.60;;
25249;SDS011;13201;51.148;13.738;2023-11-19T09:00:06;2.88;;;1.00;;
25249;SDS011;13201;51.148;13.738;2023-11-19T09:02:33;1.73;;;0.73;;
25249;SDS011;13201;51.148;13.738;2023-11-19T09:05:05;2.38;;;0.90;;
25249;SDS011;13201;51.148;13.738;2023-11-19T09:07:32;1.10;;;0.60;;
25249;SDS011;13201;51.148;13.738;2023-11-19T09:09:58;1.38;;;0.60;;
25249;SDS011;13201;51.148;13.738;2023-11-19T09:12:23;1.42;;;0.50;;
25249;SDS011;13201;51.148;13.738;2023-11-19T09:14:49;1.13;;;0.57;;
25249;SDS011;13201;51.148;13.738;2023-11-19T09:17:15;2.90;;;0.60;;
25249;SDS011;13201;51.148;13.738;2023-11-19T09:19:42;1.80;;;0.43;;
25249;SDS011;13201;51.148;13.738;2023-11-19T09:22:08;2.03;;;0.75;;
25249;SDS011;13201;51.148;13.738;2023-11-19T09:24:33;3.13;;;0.70;;
25249;SDS011;13201;51.148;13.738;2023-11-19T09:26:59;1.65;;;0.40;;
25249;SDS011;13201;51.148;13.738;2023-11-19T09:29:25;2.75;;;0.98;;
25249;SDS011;13201;51.148;13.738;2023-11-19T09:31:51;5.88;;;1.50;;
25249;SDS011;13201;51.148;13.738;2023-11-19T09:34:16;3.63;;;0.95;;
25249;SDS011;13201;51.148;13.738;2023-11-19T09:36:42;2.95;;;0.90;;
25249;SDS011;13201;51.148;13.738;2023-11-19T09:39:12;5.50;;;0.80;;
25249;SDS011;13201;51.148;13.738;2023-11-19T09:41:42;1.83;;;0.80;;
25249;SDS011;13201;51.148;13.738;2023-11-19T09:44:11;2.30;;;0.98;;
25249;SDS011;13201;51.148;13.738;2023-11-19T09:46:37;2.80;;;0.67;;
25249;SDS011;13201;51.148;13.738;2023-11-19T09:49:06;6.38;;;1.00;;
25249;SDS011;13201;51.148;13.738;2023-11-19T09:51:34;4.50;;;1.20;;
25249;SDS011;13201;51.148;13.738;2023-11-19T09:56:27;4.50;;;0.90;;
25249;SDS011;13201;51.148;13.738;2023-11-19T09:58:55;4.38;;;1.00;;
25249;SDS011;13201;51.148;13.738;2023-11-19T10:01:20;4.95;;;1.30;;
25249;SDS011;13201;51.148;13.738;2023-11-19T10:03:46;4.10;;;1.77;;
25249;SDS011;13201;51.148;13.738;2023-11-19T10:06:14;3.17;;;0.82;;
25249;SDS011;13201;51.148;13.738;2023-11-19T10:08:41;2.33;;;0.70;;
25249;SDS011;13201;51.148;13.738;2023-11-19T10:11:08;2.75;;;0.82;;
25249;SDS011;13201;51.148;13.738;2023-11-19T10:13:36;2.25;;;0.85;;
25249;SDS011;13201;51.148;13.738;2023-11-19T10:16:17;4.15;;;0.90;;
25249;SDS011;13201;51.148;13.738;2023-11-19T10:18:46;3.20;;;1.00;;
25249;SDS011;13201;51.148;13.738;2023-11-19T10:21:14;3.10;;;0.70;;
25249;SDS011;13201;51.148;13.738;2023-11-19T10:23:52;1.63;;;0.80;;
25249;SDS011;13201;51.148;13.738;2023-11-19T10:26:19;2.05;;;0.70;;
25249;SDS011;13201;51.148;13.738;2023-11-19T10:28:45;2.15;;;0.73;;
25249;SDS011;13201;51.148;13.738;2023-11-19T10:31:15;3.28;;;0.55;;
25249;SDS011;13201;51.148;13.738;2023-11-19T10:33:42;2.60;;;0.98;;
25249;SDS011;13201;51.148;13.738;2023-11-19T10:36:11;2.53;;;0.75;;
25249;SDS011;13201;51.148;13.738;2023-11-19T10:38:37;4.80;;;1.00;;
25249;SDS011;13201;51.148;13.738;2023-11-19T10:41:04;3.00;;;1.20;;
25249;SDS011;13201;51.148;13.738;2023-11-19T10:43:30;2.90;;;0.80;;
25249;SDS011;13201;51.148;13.738;2023-11-19T10:46:09;4.87;;;0.83;;
25249;SDS011;13201;51.148;13.738;2023-11-19T10:48:36;3.92;;;0.73;;
25249;SDS011;13201;51.148;13.738;2023-11-19T10:51:04;2.60;;;0.98;;
25249;SDS011;13201;51.148;13.738;2023-11-19T10:53:35;2.58;;;0.90;;
25249;SDS011;13201;51.148;13.738;2023-11-19T10:56:04;3.58;;;0.80;;
25249;SDS011;13201;51.148;13.738;2023-11-19T10:58:35;3.10;;;0.80;;
25249;SDS011;13201;51.148;13.738;2023-11-19T11:01:07;4.22;;;1.05;;
25249;SDS011;13201;51.148;13.738;2023-11-19T11:03:41;4.28;;;1.10;;
25249;SDS011;13201;51.148;13.738;2023-11-19T11:06:10;2.72;;;1.10;;
25249;SDS011;13201;51.148;13.738;2023-11-19T11:08:38;2.83;;;0.80;;
25249;SDS011;13201;51.148;13.738;2023-11-19T11:11:04;3.72;;;0.85;;
25249;SDS011;13201;51.148;13.738;2023-11-19T11:13:32;2.38;;;0.80;;
25249;SDS011;13201;51.148;13.738;2023-11-19T11:15:59;3.70;;;0.90;;
25249;SDS011;13201;51.148;13.738;2023-11-19T11:18:25;3.25;;;0.80;;
25249;SDS011;13201;51.148;13.738;2023-11-19T11:20:52;1.90;;;0.70;;
25249;SDS011;13201;51.148;13.738;2023-11-19T11:23:55;3.42;;;0.63;;
25249;SDS011;13201;51.148;13.738;2023-11-19T11:29:39;2.92;;;1.02;;
25249;SDS011;13201;51.148;13.738;2023-11-19T11:32:33;2.30;;;0.80;;
25249;SDS011;13201;51.148;13.738;2023-11-19T11:37:49;2.67;;;0.70;;
25249;SDS011;13201;51.148;13.738;2023-11-19T11:40:20;1.90;;;0.88;;
25249;SDS011;13201;51.148;13.738;2023-11-19T11:42:48;5.40;;;1.00;;
25249;SDS011;13201;51.148;13.738;2023-11-19T11:45:17;3.38;;;0.90;;
25249;SDS011;13201;51.148;13.738;2023-11-19T11:50:19;3.42;;;0.80;;
25249;SDS011;13201;51.148;13.738;2023-11-19T11:55:26;2.75;;;0.65;;
25249;SDS011;13201;51.148;13.738;2023-11-19T11:57:53;3.22;;;0.80;;
25249;SDS011;13201;51.148;13.738;2023-11-19T12:00:30;5.03;;;1.00;;
25249;SDS011;13201;51.148;13.738;2023-11-19T12:03:03;5.60;;;0.98;;
25249;SDS011;13201;51.148;13.738;2023-11-19T12:05:30;3.00;;;1.20;;
25249;SDS011;13201;51.148;13.738;2023-11-19T12:08:03;4.30;;;0.88;;
25249;SDS011;13201;51.148;13.738;2023-11-19T12:10:32;2.17;;;0.75;;
25249;SDS011;13201;51.148;13.738;2023-11-19T12:13:05;4.05;;;1.25;;
25249;SDS011;13201;51.148;13.738;2023-11-19T12:15:45;6.63;;;1.00;;
25249;SDS011;13201;51.148;13.738;2023-11-19T12:18:19;5.05;;;1.10;;
25249;SDS011;13201;51.148;13.738;2023-11-19T12:20:46;4.87;;;1.23;;
25249;SDS011;13201;51.148;13.738;2023-11-19T12:23:12;5.55;;;1.10;;
25249;SDS011;13201;51.148;13.738;2023-11-19T12:25:39;5.35;;;1.50;;
25249;SDS011;13201;51.148;13.738;2023-11-19T12:28:05;9.65;;;1.23;;
25249;SDS011;13201;51.148;13.738;2023-11-19T12:30:30;7.50;;;1.48;;
25249;SDS011;13201;51.148;13.738;2023-11-19T12:32:56;6.43;;;1.20;;
25249;SDS011;13201;51.148;13.738;2023-11-19T12:35:22;9.40;;;1.40;;
25249;SDS011;13201;51.148;13.738;2023-11-19T12:37:49;9.02;;;3.10;;
25249;SDS011;13201;51.148;13.738;2023-11-19T12:40:20;5.53;;;1.48;;
25249;SDS011;13201;51.148;13.738;2023-11-19T12:42:48;9.88;;;2.08;;
25249;SDS011;13201;51.148;13.738;2023-11-19T12:45:14;4.68;;;1.52;;
25249;SDS011;13201;51.148;13.738;2023-11-19T12:47:41;6.20;;;1.67;;
25249;SDS011;13201;51.148;13.738;2023-11-19T12:50:07;8.52;;;2.15;;
25249;SDS011;13201;51.148;13.738;2023-11-19T12:52:35;6.82;;;1.88;;
25249;SDS011;13201;51.148;13.738;2023-11-19T12:55:02;6.93;;;2.05;;
25249;SDS011;13201;51.148;13.738;2023-11-19T13:00:04;7.18;;;1.90;;
25249;SDS011;13201;51.148;13.738;2023-11-19T13:03:07;6.85;;;1.70;;
25249;SDS011;13201;51.148;13.738;2023-11-19T13:05:29;6.88;;;1.65;;
25249;SDS011;13201;51.148;13.738;2023-11-19T13:08:04;6.65;;;1.60;;
25249;SDS011;13201;51.148;13.738;2023-11-19T13:10:32;7.05;;;1.45;;
25249;SDS011;13201;51.148;13.738;2023-11-19T13:13:03;6.93;;;1.67;;
25249;SDS011;13201;51.148;13.738;2023-11-19T13:15:30;7.32;;;1.60;;
25249;SDS011;13201;51.148;13.738;2023-11-19T13:17:56;9.40;;;1.73;;
25249;SDS011;13201;51.148;13.738;2023-11-19T13:20:21;6.95;;;1.48;;
25249;SDS011;13201;51.148;13.738;2023-11-19T13:22:57;11.20;;;1.55;;
25249;SDS011;13201;51.148;13.738;2023-11-19T13:25:23;9.57;;;1.73;;
25249;SDS011;13201;51.148;13.738;2023-11-19T13:27:48;10.63;;;1.75;;
25249;SDS011;13201;51.148;13.738;2023-11-19T13:30:14;13.40;;;2.20;;
25249;SDS011;13201;51.148;13.738;2023-11-19T13:32:41;9.18;;;2.00;;
25249;SDS011;13201;51.148;13.738;2023-11-19T13:35:08;10.60;;;2.20;;
25249;SDS011;13201;51.148;13.738;2023-11-19T13:37:34;9.40;;;1.85;;
25249;SDS011;13201;51.148;13.738;2023-11-19T13:40:00;13.15;;;2.13;;
25249;SDS011;13201;51.148;13.738;2023-11-19T13:42:26;10.85;;;2.00;;
25249;SDS011;13201;51.148;13.738;2023-11-19T13:44:52;14.15;;;2.08;;
25249;SDS011;13201;51.148;13.738;2023-11-19T13:47:18;13.52;;;2.15;;
25249;SDS011;13201;51.148;13.738;2023-11-19T13:49:46;11.05;;;1.98;;
25249;SDS011;13201;51.148;13.738;2023-11-19T13:52:12;8.02;;;1.75;;
25249;SDS011;13201;51.148;13.738;2023-11-19T13:54:38;12.13;;;2.67;;
25249;SDS011;13201;51.148;13.738;2023-11-19T13:57:03;16.30;;;2.70;;
25249;SDS011;13201;51.148;13.738;2023-11-19T13:59:30;15.68;;;2.30;;
25249;SDS011;13201;51.148;13.738;2023-11-19T14:01:57;12.68;;;2.00;;
25249;SDS011;13201;51.148;13.738;2023-11-19T14:04:23;11.65;;;2.35;;
25249;SDS011;13201;51.148;13.738;2023-11-19T14:06:50;14.20;;;1.83;;
25249;SDS011;13201;51.148;13.738;2023-11-19T14:09:16;16.92;;;2.55;;
25249;SDS011;13201;51.148;13.738;2023-11-19T14:11:42;13.13;;;2.20;;
25249;SDS011;13201;51.148;13.738;2023-11-19T14:14:08;12.73;;;2.25;;
25249;SDS011;13201;51.148;13.738;2023-11-19T14:16:34;11.45;;;1.80;;
25249;SDS011;13201;51.148;13.738;2023-11-19T14:19:00;9.50;;;2.28;;
25249;SDS011;13201;51.148;13.738;2023-11-19T14:21:26;17.45;;;2.33;;
25249;SDS011;13201;51.148;13.738;2023-11-19T14:23:55;13.30;;;2.80;;
25249;SDS011;13201;51.148;13.738;2023-11-19T14:26:20;15.05;;;2.20;;
25249;SDS011;13201;51.148;13.738;2023-11-19T14:28:46;10.70;;;2.10;;
25249;SDS011;13201;51.148;13.738;2023-11-19T14:31:12;14.00;;;2.47;;
25249;SDS011;13201;51.148;13.738;2023-11-19T14:33:38;9.52;;;1.73;;
25249;SDS011;13201;51.148;13.738;2023-11-19T14:36:04;14.90;;;2.45;;
25249;SDS011;13201;51.148;13.738;2023-11-19T14:38:32;16.58;;;2.53;;
25249;SDS011;13201;51.148;13.738;2023-11-19T14:40:58;13.15;;;2.35;;
25249;SDS011;13201;51.148;13.738;2023-11-19T14:43:24;10.25;;;2.25;;
25249;SDS011;13201;51.148;13.738;2023-11-19T14:45:51;11.75;;;2.03;;
25249;SDS011;13201;51.148;13.738;2023-11-19T14:48:17;12.93;;;2.17;;
25249;SDS011;13201;51.148;13.738;2023-11-19T14:50:43;12.90;;;2.30;;
25249;SDS011;13201;51.148;13.738;2023-11-19T14:53:09;14.93;;;2.42;;
25249;SDS011;13201;51.148;13.738;2023-11-19T14:55:35;16.77;;;2.00;;
25249;SDS011;13201;51.148;13.738;2023-11-19T14:58:01;12.70;;;2.40;;
25249;SDS011;13201;51.148;13.738;2023-11-19T15:00:27;10.02;;;2.40;;
25249;SDS011;13201;51.148;13.738;2023-11-19T15:02:53;11.68;;;2.40;;
25249;SDS011;13201;51.148;13.738;2023-11-19T15:05:18;12.63;;;2.10;;
25249;SDS011;13201;51.148;13.738;2023-11-19T15:07:44;13.10;;;2.17;;
25249;SDS011;13201;51.148;13.738;2023-11-19T15:10:10;10.02;;;1.90;;
25249;SDS011;13201;51.148;13.738;2023-11-19T15:12:37;12.43;;;2.00;;
25249;SDS011;13201;51.148;13.738;2023-11-19T15:15:08;12.48;;;2.13;;
25249;SDS011;13201;51.148;13.738;2023-11-19T15:17:35;17.08;;;2.55;;
25249;SDS011;13201;51.148;13.738;2023-11-19T15:20:02;14.35;;;2.33;;
25249;SDS011;13201;51.148;13.738;2023-11-19T15:22:28;13.43;;;2.28;;